Time;durP1;ratioP1;P1;durP2;ratioP2;P2;SDS_P1;SDS_P2;PMS_P1;PMS_P2;Temp;Humidity;BMP_temperature;BMP_pressure;BME280_temperature;BME280_humidity;BME280_pressure;Samples;Min_cycle;Max_cycle;Signal;HPM_P1;HPM_P2
2023/03/07 00:01:08;;;;;;;55.70;27.70;;;;;;;-1.16;88.38;97768.27;270708;1267;24237;-86
2023/03/07 00:07:47;;;;;;;62.80;29.50;;;;;;;-1.15;88.49;97763.08;271344;1266;22381;-85
2023/03/07 00:14:10;;;;;;;62.20;28.10;;;;;;;-1.11;88.77;97762.48;273656;1267;22286;-86
2023/03/07 00:20:28;;;;;;;65.00;29.70;;;;;;;-1.11;88.79;97761.80;273706;1267;23352;-86
2023/03/07 00:26:31;;;;;;;65.90;28.00;;;;;;;-1.13;88.64;97754.14;274123;1269;23184;-85
2023/03/07 00:32:33;;;;;;;61.00;27.50;;;;;;;-1.12;88.67;97750.69;271545;1267;23695;-85
2023/03/07 00:38:35;;;;;;;53.70;24.60;;;;;;;-1.14;88.58;97743.88;270145;1268;22551;-88
2023/03/07 00:44:36;;;;;;;54.50;24.30;;;;;;;-1.20;88.48;97737.83;272673;1268;25329;-85
2023/03/07 00:50:38;;;;;;;49.60;23.60;;;;;;;-1.26;88.67;97733.61;270306;1267;23258;-86
2023/03/07 00:56:40;;;;;;;44.60;21.90;;;;;;;-1.31;88.84;97733.19;270613;1267;23798;-86
2023/03/07 01:02:43;;;;;;;46.40;22.60;;;;;;;-1.35;89.05;97730.37;273231;1269;22535;-86
2023/03/07 01:09:20;;;;;;;58.60;26.80;;;;;;;-1.40;89.19;97727.66;272366;1267;23617;-86
2023/03/07 01:15:47;;;;;;;56.90;25.30;;;;;;;-1.43;89.65;97721.08;272966;1269;22202;-86
2023/03/07 01:21:51;;;;;;;65.50;31.20;;;;;;;-1.39;89.99;97711.58;273430;1267;23307;-86
2023/03/07 01:27:54;;;;;;;75.60;40.10;;;;;;;-1.30;90.50;97705.02;272399;1267;22527;-86
2023/03/07 01:34:06;;;;;;;75.20;37.70;;;;;;;-1.19;90.76;97700.52;273290;1267;22399;-87
2023/03/07 01:40:12;;;;;;;91.20;42.80;;;;;;;-1.09;90.87;97695.48;273861;1269;22167;-86
2023/03/07 01:46:56;;;;;;;85.10;42.00;;;;;;;-1.00;90.98;97691.11;273781;1275;22359;-86
2023/03/07 01:54:04;;;;;;;102.10;48.90;;;;;;;-0.94;90.93;97688.04;273038;1269;22265;-86
2023/03/07 02:00:10;;;;;;;101.00;42.60;;;;;;;-0.90;90.90;97685.48;273764;1267;22340;-86
2023/03/07 02:06:16;;;;;;;67.50;31.70;;;;;;;-0.85;90.70;97681.67;272684;1268;22514;-85
2023/03/07 02:12:40;;;;;;;50.80;23.50;;;;;;;-0.76;90.66;97676.61;271504;1267;22538;-86
2023/03/07 02:18:44;;;;;;;63.70;32.00;;;;;;;-0.68;90.88;97677.24;272065;1267;22728;-84
2023/03/07 02:25:24;;;;;;;50.50;24.50;;;;;;;-0.68;91.22;97682.58;272212;1266;22192;-85
2023/03/07 02:31:26;;;;;;;46.80;22.60;;;;;;;-0.66;91.49;97677.48;271787;1270;25390;-85
2023/03/07 02:37:33;;;;;;;46.20;21.10;;;;;;;-0.60;91.61;97678.16;271615;1270;22989;-85
2023/03/07 02:43:36;;;;;;;45.00;20.60;;;;;;;-0.55;91.69;97677.38;269634;1269;22426;-85
2023/03/07 02:49:37;;;;;;;34.40;17.80;;;;;;;-0.52;91.65;97674.55;269612;1269;22528;-84
2023/03/07 02:55:40;;;;;;;41.40;20.10;;;;;;;-0.49;91.75;97670.30;269416;1269;22536;-84
2023/03/07 03:01:41;;;;;;;33.70;17.00;;;;;;;-0.44;91.97;97673.00;269443;1269;23903;-85
2023/03/07 03:07:44;;;;;;;32.20;15.60;;;;;;;-0.42;91.94;97673.20;269350;1269;22521;-85
2023/03/07 03:14:11;;;;;;;32.50;14.70;;;;;;;-0.46;91.89;97674.48;271705;1270;22184;-85
2023/03/07 03:20:15;;;;;;;29.50;15.80;;;;;;;-0.49;91.61;97670.98;269711;1265;24442;-85
2023/03/07 03:26:18;;;;;;;35.90;16.40;;;;;;;-0.53;91.42;97669.53;268850;1269;23328;-85
2023/03/07 03:32:40;;;;;;;36.10;16.20;;;;;;;-0.57;91.41;97670.41;269615;1269;22224;-85
2023/03/07 03:38:43;;;;;;;30.40;15.90;;;;;;;-0.58;91.55;97667.48;270079;1269;24229;-85
2023/03/07 03:44:45;;;;;;;31.60;14.50;;;;;;;-0.59;91.62;97668.98;269860;1269;22629;-85
2023/03/07 03:50:46;;;;;;;31.20;15.80;;;;;;;-0.59;91.72;97668.45;269251;1269;25396;-85
2023/03/07 03:56:53;;;;;;;33.10;16.90;;;;;;;-0.57;91.86;97672.24;269224;1269;23572;-84
2023/03/07 04:02:55;;;;;;;33.40;16.50;;;;;;;-0.55;92.09;97672.24;271862;1269;23721;-85
2023/03/07 04:08:58;;;;;;;41.00;18.30;;;;;;;-0.51;92.10;97675.68;269447;1269;22696;-84
2023/03/07 04:15:21;;;;;;;34.80;18.00;;;;;;;-0.45;92.05;97676.42;270843;1269;22228;-86
2023/03/07 04:22:09;;;;;;;35.40;17.20;;;;;;;-0.40;92.04;97673.95;273879;1271;23205;-85
2023/03/07 04:29:07;;;;;;;31.80;15.30;;;;;;;-0.35;92.08;97670.73;273911;1269;22205;-85
2023/03/07 04:35:17;;;;;;;28.20;15.00;;;;;;;-0.27;91.98;97666.86;273582;1270;22208;-84
2023/03/07 04:41:54;;;;;;;33.60;17.10;;;;;;;-0.20;92.10;97668.39;273963;1270;22221;-85
2023/03/07 04:47:58;;;;;;;35.10;16.70;;;;;;;-0.14;92.01;97666.73;273183;1270;22474;-85
2023/03/07 04:54:18;;;;;;;34.40;16.00;;;;;;;-0.10;92.18;97666.77;271657;1270;23002;-84
2023/03/07 05:00:26;;;;;;;33.60;15.90;;;;;;;-0.05;92.26;97664.86;270383;1269;24342;-85
2023/03/07 05:06:57;;;;;;;32.00;16.00;;;;;;;-0.00;92.33;97664.16;273213;1272;22845;-85
2023/03/07 05:13:00;;;;;;;30.60;16.30;;;;;;;0.07;92.33;97661.15;271580;1269;22544;-86
2023/03/07 05:19:12;;;;;;;31.60;16.30;;;;;;;0.15;92.22;97660.31;270778;1269;23774;-84
2023/03/07 05:25:14;;;;;;;32.30;15.40;;;;;;;0.18;92.23;97660.48;270397;1268;23586;-85
2023/03/07 05:31:58;;;;;;;33.00;16.50;;;;;;;0.22;92.30;97665.90;270624;1260;22545;-84
2023/03/07 05:38:25;;;;;;;31.60;15.80;;;;;;;0.28;92.54;97665.09;273726;1269;22245;-85
2023/03/07 05:44:43;;;;;;;33.60;16.80;;;;;;;0.33;92.50;97662.70;273850;1272;22233;-85
2023/03/07 05:51:35;;;;;;;31.00;15.70;;;;;;;0.39;92.55;97662.25;273913;1275;22257;-85
2023/03/07 05:58:42;;;;;;;39.00;18.20;;;;;;;0.47;92.31;97660.82;272547;1270;23082;-85
2023/03/07 06:04:45;;;;;;;35.30;17.50;;;;;;;0.53;91.95;97665.68;273786;1275;22590;-85
2023/03/07 06:11:37;;;;;;;40.70;20.50;;;;;;;0.58;91.76;97661.20;273678;1275;22175;-83
2023/03/07 06:18:14;;;;;;;38.40;20.30;;;;;;;0.59;91.58;97662.94;273756;1271;22172;-85
2023/03/07 06:24:16;;;;;;;;;;;;;;;0.64;91.57;97661.08;273647;1275;22507;-86
2023/03/07 06:30:42;;;;;;;35.20;17.60;;;;;;;0.71;91.47;97663.98;272805;1270;22194;-84
2023/03/07 06:36:44;;;;;;;35.10;16.80;;;;;;;0.84;91.60;97666.64;270583;1270;23516;-84
2023/03/07 06:43:11;;;;;;;35.80;16.80;;;;;;;1.08;91.77;97668.98;270612;1269;25207;-85
2023/03/07 06:49:36;;;;;;;37.20;17.10;;;;;;;1.35;91.87;97670.16;270798;1269;22188;-84
2023/03/07 06:55:48;;;;;;;30.20;16.10;;;;;;;1.62;91.65;97673.29;271446;1269;22195;-86
2023/03/07 07:02:23;;;;;;;28.90;15.90;;;;;;;1.83;91.69;97672.12;273321;1270;22382;-85
2023/03/07 07:08:25;;;;;;;29.30;15.60;;;;;;;2.04;90.98;97670.92;272996;1268;22400;-85
2023/03/07 07:14:56;;;;;;;28.90;14.70;;;;;;;2.26;90.48;97666.18;273656;1270;22247;-85
2023/03/07 07:21:00;;;;;;;25.10;13.50;;;;;;;2.59;89.76;97667.27;273821;1269;22549;-84
2023/03/07 07:27:03;;;;;;;31.10;15.60;;;;;;;3.04;89.62;97668.27;270904;1270;22543;-84
2023/03/07 07:33:05;;;;;;;31.70;15.50;;;;;;;3.41;89.21;97663.53;270444;1268;22561;-83
2023/03/07 07:39:16;;;;;;;26.50;14.00;;;;;;;3.85;88.71;97658.80;271287;1268;22393;-85
2023/03/07 07:45:22;;;;;;;25.40;14.80;;;;;;;4.33;87.86;97658.14;273955;1269;22266;-84
2023/03/07 07:51:33;;;;;;;26.90;14.20;;;;;;;4.75;86.39;97661.86;273845;1270;22222;-84
2023/03/07 07:57:44;;;;;;;24.20;14.60;;;;;;;4.98;85.69;97662.05;274027;1269;22271;-83
2023/03/07 08:03:47;;;;;;;21.50;12.60;;;;;;;5.18;84.88;97654.55;270661;1270;23022;-83
2023/03/07 08:09:49;;;;;;;21.00;13.00;;;;;;;5.43;83.64;97651.23;269376;1260;22563;-83
2023/03/07 08:15:52;;;;;;;27.60;14.00;;;;;;;5.64;82.88;97650.42;269437;1269;22555;-82
2023/03/07 08:21:54;;;;;;;21.60;12.60;;;;;;;5.99;82.29;97645.60;272075;1260;22187;-83
2023/03/07 08:27:56;;;;;;;21.90;12.80;;;;;;;6.26;81.65;97641.30;271526;1260;22291;-83
2023/03/07 08:33:58;;;;;;;21.90;12.50;;;;;;;6.44;80.73;97640.17;273916;1269;22202;-83
2023/03/07 08:40:24;;;;;;;22.00;12.40;;;;;;;6.79;79.72;97635.84;271914;1269;22426;-83
2023/03/07 08:46:26;;;;;;;21.10;11.90;;;;;;;7.12;78.65;97633.94;273769;1269;22132;-82
2023/03/07 08:52:28;;;;;;;22.40;11.80;;;;;;;7.22;77.97;97632.95;271979;1269;24324;-83
2023/03/07 08:58:29;;;;;;;19.60;11.70;;;;;;;7.21;77.00;97631.95;270583;1269;22929;-82
2023/03/07 09:04:31;;;;;;;18.20;10.80;;;;;;;7.17;76.36;97634.27;270177;1256;22540;-81
2023/03/07 09:10:35;;;;;;;17.10;9.10;;;;;;;6.93;75.26;97630.22;270360;1268;22608;-81
2023/03/07 09:16:37;;;;;;;15.90;9.50;;;;;;;6.88;74.60;97628.25;269942;1268;23274;-84
2023/03/07 09:22:39;;;;;;;17.90;9.80;;;;;;;6.93;73.97;97625.63;269948;1268;22544;-82
2023/03/07 09:29:00;;;;;;;15.10;9.30;;;;;;;6.93;72.70;97621.66;271628;1269;22558;-82
2023/03/07 09:35:02;;;;;;;14.40;8.70;;;;;;;6.91;72.43;97616.08;271008;1269;22187;-83
2023/03/07 09:41:41;;;;;;;14.00;8.50;;;;;;;7.07;71.99;97612.24;273008;1254;23419;-83
2023/03/07 09:47:53;;;;;;;14.90;8.70;;;;;;;7.06;69.93;97600.19;273498;1269;22424;-83
2023/03/07 09:54:12;;;;;;;13.30;8.70;;;;;;;7.12;69.68;97591.17;272094;1269;25400;-83
2023/03/07 10:00:44;;;;;;;17.50;9.30;;;;;;;7.45;68.33;97587.57;269824;1269;22616;-83
2023/03/07 10:07:06;;;;;;;15.60;9.60;;;;;;;7.75;67.40;97585.39;272792;1254;201474;-83
2023/03/07 10:13:31;;;;;;;14.70;9.30;;;;;;;7.78;66.40;97572.09;271052;1269;22581;-82
2023/03/07 10:19:33;;;;;;;15.10;9.20;;;;;;;7.66;64.88;97571.25;269439;1259;25350;-84
2023/03/07 10:26:09;;;;;;;15.10;8.70;;;;;;;7.67;64.90;97572.34;269733;1269;23192;-83
2023/03/07 10:32:33;;;;;;;15.50;9.20;;;;;;;8.16;64.11;97573.14;270112;1269;22536;-83
2023/03/07 10:39:03;;;;;;;16.80;9.00;;;;;;;8.27;62.79;97560.75;270177;1269;22558;-82
2023/03/07 10:45:05;;;;;;;15.10;8.40;;;;;;;7.82;62.31;97555.98;273664;1269;22968;-82
2023/03/07 10:51:30;;;;;;;12.70;8.10;;;;;;;7.34;62.11;97545.94;273398;1260;22217;-82
2023/03/07 10:57:32;;;;;;;15.30;9.10;;;;;;;7.13;62.38;97542.42;273465;1269;22182;-83
2023/03/07 11:03:50;;;;;;;15.10;8.50;;;;;;;7.14;61.84;97534.58;273158;1260;22228;-83
2023/03/07 11:09:54;;;;;;;14.50;8.10;;;;;;;6.95;61.38;97529.02;272479;1270;22616;-83
2023/03/07 11:16:18;;;;;;;14.00;8.50;;;;;;;6.90;61.87;97523.34;271289;1270;22555;-83
2023/03/07 11:22:25;;;;;;;14.30;8.80;;;;;;;6.89;62.00;97518.52;270385;1270;22554;-82
2023/03/07 11:28:32;;;;;;;15.90;9.60;;;;;;;6.94;61.21;97514.11;271078;1270;22401;-83
2023/03/07 11:34:58;;;;;;;12.80;8.50;;;;;;;6.99;60.70;97506.42;271513;1269;22201;-83
2023/03/07 11:41:11;;;;;;;13.70;8.90;;;;;;;7.23;61.08;97498.35;273356;1272;22284;-83
2023/03/07 11:47:45;;;;;;;14.80;9.00;;;;;;;7.61;60.78;97491.09;272718;1270;23627;-82
2023/03/07 11:54:02;;;;;;;16.10;8.80;;;;;;;7.43;59.33;97475.94;272716;1270;22554;-82
2023/03/07 12:00:28;;;;;;;15.40;10.20;;;;;;;7.37;59.68;97475.09;270683;1254;22694;-82
2023/03/07 12:07:33;;;;;;;13.70;8.30;;;;;;;7.37;58.87;97477.98;271045;1270;23400;-83
2023/03/07 12:13:53;;;;;;;16.00;9.50;;;;;;;7.34;58.38;97473.86;270751;1276;22214;-82
2023/03/07 12:20:19;;;;;;;16.90;10.20;;;;;;;7.36;58.39;97470.27;272106;1262;22274;-82
2023/03/07 12:26:35;;;;;;;14.20;8.60;;;;;;;7.47;58.87;97465.84;269544;1267;23003;-84
2023/03/07 12:32:45;;;;;;;16.80;10.40;;;;;;;7.77;59.26;97465.16;270059;1270;23067;-84
2023/03/07 12:38:51;;;;;;;14.60;8.80;;;;;;;7.88;58.96;97460.14;273041;1269;23301;-86
2023/03/07 12:45:18;;;;;;;15.30;10.00;;;;;;;7.84;58.87;97456.96;271126;1270;22607;-83
2023/03/07 12:51:47;;;;;;;17.70;10.30;;;;;;;7.68;57.88;97458.88;271935;1270;22254;-83
2023/03/07 12:58:03;;;;;;;15.60;10.00;;;;;;;7.55;57.95;97461.62;272705;1270;22773;-83
2023/03/07 13:04:27;;;;;;;18.50;11.00;;;;;;;7.59;58.11;97456.80;270779;1270;22679;-82
2023/03/07 13:10:40;;;;;;;;;;;;;;;;;;;;;
2023/03/07 13:16:46;;;;;;;14.80;9.00;;;;;;;7.64;58.53;97447.36;272452;1270;22930;-83
2023/03/07 13:22:47;;;;;;;20.30;11.10;;;;;;;7.65;57.75;97447.27;273020;1270;22837;-83
2023/03/07 13:28:51;;;;;;;17.60;10.60;;;;;;;7.47;57.67;97444.05;271471;1270;22675;-83
2023/03/07 13:34:52;;;;;;;17.30;10.20;;;;;;;7.43;57.92;97435.49;270151;1269;22543;-84
2023/03/07 13:41:39;;;;;;;15.70;10.10;;;;;;;7.30;56.69;97421.59;269675;1269;23271;-83
2023/03/07 13:47:43;;;;;;;19.30;10.60;;;;;;;7.14;57.79;97418.49;269563;1269;22548;-83
2023/03/07 13:53:59;;;;;;;19.40;11.10;;;;;;;7.10;58.09;97413.45;269469;1269;23920;-84
2023/03/07 14:00:20;;;;;;;17.20;10.40;;;;;;;7.04;58.24;97410.73;273417;1269;25166;-84
2023/03/07 14:06:34;;;;;;;16.40;9.70;;;;;;;7.03;58.53;97406.60;273276;1257;23020;-84
2023/03/07 14:13:05;;;;;;;17.40;10.50;;;;;;;7.00;58.51;97401.08;273145;1269;22404;-84
2023/03/07 14:19:37;;;;;;;17.20;10.20;;;;;;;7.16;58.90;97395.09;273681;1259;22321;-84
2023/03/07 14:26:00;;;;;;;17.70;10.20;;;;;;;7.23;58.81;97387.63;273607;1269;22971;-84
2023/03/07 14:32:02;;;;;;;16.40;9.70;;;;;;;7.20;58.32;97379.23;273449;1269;22198;-84
2023/03/07 14:38:07;;;;;;;20.70;10.60;;;;;;;7.04;58.50;97375.83;270086;1269;22544;-84
2023/03/07 14:44:46;;;;;;;21.80;9.90;;;;;;;6.99;58.84;97374.89;271004;1269;22522;-83
2023/03/07 14:50:48;;;;;;;18.50;10.50;;;;;;;6.99;58.45;97374.44;272534;1269;22530;-85
2023/03/07 14:56:52;;;;;;;15.40;9.70;;;;;;;6.91;58.48;97368.69;270997;1269;25282;-83
2023/03/07 15:03:06;;;;;;;17.10;9.70;;;;;;;6.89;58.85;97355.46;272953;1269;22255;-83
2023/03/07 15:09:29;;;;;;;18.30;9.90;;;;;;;6.95;58.51;97354.54;273565;1269;22195;-82
2023/03/07 15:15:38;;;;;;;19.30;9.60;;;;;;;6.98;58.36;97350.17;273506;1266;22241;-83
2023/03/07 15:21:44;;;;;;;17.50;9.60;;;;;;;6.95;58.25;97347.46;273826;1269;22154;-83
2023/03/07 15:27:47;;;;;;;15.60;9.10;;;;;;;6.89;58.73;97338.38;273458;1256;22347;-83
2023/03/07 15:34:08;;;;;;;20.30;9.90;;;;;;;6.91;58.38;97337.83;273447;1269;22257;-82
2023/03/07 15:40:10;;;;;;;14.70;8.70;;;;;;;6.85;58.05;97338.61;273555;1269;22963;-83
2023/03/07 15:46:15;;;;;;;14.40;9.10;;;;;;;6.74;57.75;97337.61;271107;1269;22552;-83
2023/03/07 15:52:36;;;;;;;17.50;9.60;;;;;;;6.51;58.04;97340.02;270176;1269;25449;-83
2023/03/07 15:58:41;;;;;;;18.80;10.70;;;;;;;6.29;58.26;97340.30;272288;1264;22565;-83
2023/03/07 16:04:45;;;;;;;20.70;11.50;;;;;;;6.06;58.58;97339.95;270167;1269;24178;-83
2023/03/07 16:11:09;;;;;;;20.40;11.80;;;;;;;5.82;58.95;97336.69;273744;1272;23895;-83
2023/03/07 16:17:33;;;;;;;19.50;11.20;;;;;;;5.61;59.08;97341.39;270741;1259;23129;-83
2023/03/07 16:23:35;;;;;;;22.10;11.40;;;;;;;5.47;59.33;97339.08;270420;1269;23483;-83
2023/03/07 16:29:37;;;;;;;21.90;11.10;;;;;;;5.35;59.50;97329.48;270483;1269;22650;-84
2023/03/07 16:35:39;;;;;;;25.60;13.00;;;;;;;5.17;59.88;97329.00;272139;1269;23226;-83
2023/03/07 16:41:48;;;;;;;27.70;13.70;;;;;;;4.99;60.34;97331.30;273222;1269;22481;-84
2023/03/07 16:48:14;;;;;;;24.30;13.20;;;;;;;4.86;60.93;97324.02;271094;1269;23044;-83
2023/03/07 16:54:17;;;;;;;25.70;13.70;;;;;;;4.84;61.33;97328.27;273336;1265;22454;-84
2023/03/07 17:00:22;;;;;;;27.90;14.20;;;;;;;4.75;61.70;97333.47;273817;1269;22185;-83
2023/03/07 17:06:33;;;;;;;25.90;13.20;;;;;;;4.71;62.23;97331.04;273087;1269;22187;-82
2023/03/07 17:12:35;;;;;;;27.20;14.60;;;;;;;4.68;62.76;97331.02;273215;1259;22283;-84
2023/03/07 17:18:36;;;;;;;29.10;16.30;;;;;;;4.63;63.31;97332.06;273105;1269;22578;-83
2023/03/07 17:24:39;;;;;;;29.40;15.70;;;;;;;4.68;63.69;97341.86;273014;1269;22385;-83
2023/03/07 17:30:43;;;;;;;30.50;16.00;;;;;;;4.73;63.91;97341.12;272494;1269;22325;-83
2023/03/07 17:36:45;;;;;;;29.20;15.90;;;;;;;4.73;64.03;97339.88;272371;1269;23110;-83
2023/03/07 17:42:48;;;;;;;32.90;16.80;;;;;;;4.70;64.34;97336.30;272025;1254;23416;-82
2023/03/07 17:48:52;;;;;;;34.30;17.70;;;;;;;4.72;64.55;97331.51;273208;1269;23614;-83
2023/03/07 17:54:53;;;;;;;33.50;18.30;;;;;;;4.73;64.90;97327.09;273277;1269;22390;-82
2023/03/07 18:00:55;;;;;;;34.60;17.70;;;;;;;4.77;65.36;97324.34;273167;1269;22404;-83
2023/03/07 18:06:58;;;;;;;33.30;16.90;;;;;;;4.77;65.59;97313.58;265656;1269;10001917;-83
2023/03/07 18:12:59;;;;;;;34.80;19.30;;;;;;;4.75;65.87;97313.33;272659;1259;23295;-84
2023/03/07 18:19:01;;;;;;;35.50;18.70;;;;;;;4.70;66.07;97313.60;272477;1269;23018;-83
2023/03/07 18:25:08;;;;;;;33.10;17.90;;;;;;;4.65;66.31;97311.33;271345;1269;22536;-84
2023/03/07 18:31:12;;;;;;;28.90;17.00;;;;;;;4.63;66.84;97304.11;272100;1269;22524;-83
2023/03/07 18:37:15;;;;;;;35.40;19.20;;;;;;;4.62;66.90;97297.75;271373;1269;22553;-83
2023/03/07 18:43:16;;;;;;;38.30;19.10;;;;;;;4.60;67.11;97293.79;272596;1269;22523;-84
2023/03/07 18:49:18;;;;;;;29.00;16.50;;;;;;;4.55;67.31;97288.64;273363;1269;22184;-83
2023/03/07 18:55:20;;;;;;;42.20;19.30;;;;;;;4.53;67.37;97287.85;273117;1269;22395;-83
2023/03/07 19:01:28;;;;;;;31.80;18.00;;;;;;;4.55;67.55;97285.94;273025;1269;22481;-83
2023/03/07 19:07:30;;;;;;;37.40;19.40;;;;;;;4.54;67.80;97285.07;273277;1269;23879;-83
2023/03/07 19:13:32;;;;;;;37.00;19.80;;;;;;;4.47;68.06;97285.56;273300;1269;22388;-83
2023/03/07 19:19:34;;;;;;;36.20;19.60;;;;;;;4.42;68.09;97278.71;272856;1269;23133;-83
2023/03/07 19:25:36;;;;;;;39.00;20.10;;;;;;;4.42;68.35;97279.56;271278;1269;22585;-83
2023/03/07 19:31:38;;;;;;;39.20;19.80;;;;;;;4.40;68.48;97275.83;272455;1269;22248;-84
2023/03/07 19:37:39;;;;;;;42.20;19.90;;;;;;;4.36;68.75;97274.86;273165;1269;22373;-83
2023/03/07 19:43:41;;;;;;;35.60;20.10;;;;;;;4.33;69.06;97272.83;271098;1269;22645;-83
2023/03/07 19:49:43;;;;;;;35.90;17.90;;;;;;;4.30;69.06;97269.41;271585;1269;23025;-83
2023/03/07 19:55:45;;;;;;;37.20;18.90;;;;;;;4.28;69.36;97265.90;270555;1269;22706;-83
2023/03/07 20:01:46;;;;;;;33.90;17.80;;;;;;;4.26;69.42;97264.27;272298;1269;22398;-84
2023/03/07 20:07:48;;;;;;;32.70;17.80;;;;;;;4.25;69.49;97263.80;273366;1259;22409;-83
2023/03/07 20:13:50;;;;;;;33.60;17.40;;;;;;;4.27;70.01;97257.54;273145;1269;22435;-83
2023/03/07 20:19:54;;;;;;;30.30;16.60;;;;;;;4.25;70.06;97260.39;273382;1269;23124;-83
2023/03/07 20:26:09;;;;;;;30.10;15.30;;;;;;;4.26;69.96;97253.89;273094;1269;22839;-83
2023/03/07 20:32:11;;;;;;;25.70;14.40;;;;;;;4.31;69.98;97248.73;273142;1269;22377;-83
2023/03/07 20:38:13;;;;;;;28.80;13.40;;;;;;;4.35;70.07;97244.60;273325;1269;22560;-83
2023/03/07 20:44:14;;;;;;;28.50;12.40;;;;;;;4.40;70.18;97236.13;273363;1269;23090;-83
2023/03/07 20:50:17;;;;;;;23.20;11.90;;;;;;;4.53;70.28;97229.16;273151;1269;22164;-83
2023/03/07 20:56:19;;;;;;;21.50;10.90;;;;;;;4.62;70.19;97227.45;273195;1269;22220;-83
2023/03/07 21:02:21;;;;;;;23.40;11.80;;;;;;;4.73;70.08;97224.64;273149;1269;22547;-83
2023/03/07 21:08:23;;;;;;;22.30;10.90;;;;;;;4.87;69.82;97224.02;273408;1269;22396;-83
2023/03/07 21:14:25;;;;;;;23.00;11.50;;;;;;;4.97;69.88;97225.47;273401;1269;23141;-84
2023/03/07 21:20:27;;;;;;;21.00;9.90;;;;;;;5.02;69.94;97225.02;271560;1269;23686;-84
2023/03/07 21:26:31;;;;;;;19.90;11.40;;;;;;;5.03;69.98;97223.48;273379;1269;22960;-83
2023/03/07 21:32:32;;;;;;;21.40;10.90;;;;;;;5.09;69.90;97213.42;271223;1269;22538;-83
2023/03/07 21:38:36;;;;;;;23.50;11.50;;;;;;;5.18;69.94;97207.57;271129;1269;22549;-82
2023/03/07 21:44:38;;;;;;;22.40;11.50;;;;;;;5.25;69.92;97201.77;271307;1267;22389;-83
2023/03/07 21:50:43;;;;;;;22.30;10.30;;;;;;;5.27;70.17;97203.42;272739;1269;23325;-83
2023/03/07 21:56:44;;;;;;;21.80;11.70;;;;;;;5.33;70.38;97208.02;269534;1269;22538;-82
2023/03/07 22:02:46;;;;;;;22.40;10.80;;;;;;;5.34;70.50;97205.77;269541;1269;22399;-83
2023/03/07 22:08:48;;;;;;;19.30;10.90;;;;;;;5.34;70.57;97210.10;270254;1269;88522;-81
2023/03/07 22:14:50;;;;;;;19.70;11.10;;;;;;;5.34;70.78;97209.57;270281;1269;24242;-82
2023/03/07 22:20:51;;;;;;;19.00;10.80;;;;;;;5.34;70.96;97209.27;269695;1260;22545;-82
2023/03/07 22:26:53;;;;;;;20.70;10.90;;;;;;;5.32;71.31;97207.39;273367;1269;22349;-83
2023/03/07 22:32:55;;;;;;;23.30;11.40;;;;;;;5.32;71.66;97204.20;271411;1260;22392;-83
2023/03/07 22:38:57;;;;;;;18.70;10.20;;;;;;;5.32;71.65;97204.13;273294;1269;22258;-83
2023/03/07 22:44:58;;;;;;;19.80;10.90;;;;;;;5.30;71.88;97204.81;273231;1270;22462;-83
2023/03/07 22:51:00;;;;;;;22.20;11.30;;;;;;;5.30;71.99;97204.36;271743;1269;22493;-83
2023/03/07 22:57:02;;;;;;;21.00;11.60;;;;;;;5.31;72.28;97200.11;269274;1269;23970;-83
2023/03/07 23:03:04;;;;;;;24.30;10.80;;;;;;;5.29;72.50;97195.77;272405;1269;22195;-83
2023/03/07 23:09:07;;;;;;;19.70;10.20;;;;;;;5.29;72.73;97197.53;273332;1269;22466;-83
2023/03/07 23:15:08;;;;;;;17.70;9.70;;;;;;;5.25;72.84;97191.25;270198;1260;22534;-83
2023/03/07 23:21:14;;;;;;;19.10;10.30;;;;;;;5.21;73.07;97191.92;271911;1264;23162;-84
2023/03/07 23:27:16;;;;;;;23.30;10.10;;;;;;;5.19;73.19;97194.86;272549;1257;23308;-83
2023/03/07 23:33:17;;;;;;;18.30;10.20;;;;;;;5.21;73.42;97198.83;270263;1269;22297;-83
2023/03/07 23:39:19;;;;;;;19.50;9.50;;;;;;;5.17;73.46;97196.02;269857;1269;25227;-83
2023/03/07 23:45:21;;;;;;;17.30;9.30;;;;;;;5.12;73.71;97202.58;272205;1269;22382;-83
2023/03/07 23:51:23;;;;;;;18.90;9.80;;;;;;;5.11;74.05;97203.20;273375;1269;22194;-83
2023/03/07 23:57:25;;;;;;;17.80;9.90;;;;;;;5.14;74.11;97201.98;273287;1269;22294;-83
